Time;durP1;ratioP1;P1;durP2;ratioP2;P2;SDS_P1;SDS_P2;PMS_P1;PMS_P2;Temp;Humidity;BMP_temperature;BMP_pressure;BME280_temperature;BME280_humidity;BME280_pressure;Samples;Min_cycle;Max_cycle;Signal;HPM_P1;HPM_P2
2023/10/11 00:02:55;;;;;;;19.00;6.28;;;18.90;99.90;;;;;;4989497;28;20033;-85
2023/10/11 00:05:22;;;;;;;13.77;6.05;;;18.90;99.90;;;;;;4988253;28;20022;-86
2023/10/11 00:07:48;;;;;;;18.13;6.25;;;18.90;99.90;;;;;;4998423;28;20041;-87
2023/10/11 00:10:19;;;;;;;23.70;6.28;;;19.00;99.90;;;;;;4986483;28;20030;-89
2023/10/11 00:12:50;;;;;;;16.27;6.22;;;19.00;99.90;;;;;;4998446;28;20077;-86
2023/10/11 00:15:16;;;;;;;19.02;6.50;;;19.00;99.90;;;;;;4996788;28;20133;-86
2023/10/11 00:17:46;;;;;;;25.08;7.40;;;18.90;99.90;;;;;;4999711;28;20377;-92
2023/10/11 00:22:57;;;;;;;19.33;6.68;;;18.90;99.90;;;;;;5000277;28;20059;-89
2023/10/11 00:25:29;;;;;;;21.40;6.85;;;18.80;99.90;;;;;;4994090;28;20127;-90
2023/10/11 00:27:58;;;;;;;20.88;7.03;;;18.80;99.90;;;;;;4995223;28;20029;-87
2023/10/11 00:30:30;;;;;;;18.58;6.68;;;18.80;99.90;;;;;;5000892;28;20044;-88
2023/10/11 00:32:56;;;;;;;20.42;5.15;;;18.70;99.90;;;;;;4993405;28;20123;-88
2023/10/11 00:35:25;;;;;;;20.77;6.78;;;18.70;99.90;;;;;;4997813;28;20432;-83
2023/10/11 00:37:52;;;;;;;14.63;6.20;;;18.70;99.90;;;;;;4998466;28;20034;-87
2023/10/11 00:40:26;;;;;;;16.25;7.15;;;18.60;99.90;;;;;;4999906;28;20037;-83
2023/10/11 00:42:52;;;;;;;18.55;6.90;;;18.60;99.90;;;;;;5001210;28;20035;-83
2023/10/11 00:45:23;;;;;;;15.00;6.47;;;18.50;99.90;;;;;;4998361;28;20100;-90
2023/10/11 00:47:53;;;;;;;14.15;6.30;;;18.50;99.90;;;;;;4999965;28;20068;-87
2023/10/11 00:50:26;;;;;;;14.32;6.68;;;18.50;99.90;;;;;;4991166;28;20047;-81
2023/10/11 00:52:55;;;;;;;22.00;7.30;;;18.50;99.90;;;;;;4994852;28;20409;-88
2023/10/11 00:55:23;;;;;;;15.88;6.65;;;18.40;99.90;;;;;;4995265;28;20064;-86
2023/10/11 00:57:50;;;;;;;28.42;6.22;;;18.40;99.90;;;;;;5002278;28;20051;-89
2023/10/11 01:00:21;;;;;;;26.42;7.13;;;18.40;99.90;;;;;;5001711;28;20029;-88
2023/10/11 01:02:50;;;;;;;18.58;6.38;;;18.40;99.90;;;;;;5000259;28;20030;-89
2023/10/11 01:05:17;;;;;;;15.95;7.00;;;18.40;99.90;;;;;;4995639;28;20041;-91
2023/10/11 01:07:46;;;;;;;12.80;6.88;;;18.30;99.90;;;;;;4995149;28;20040;-87
2023/10/11 01:10:12;;;;;;;18.95;6.78;;;18.30;99.90;;;;;;4990780;28;20044;-88
2023/10/11 01:12:39;;;;;;;19.23;6.53;;;18.40;99.90;;;;;;4999454;28;20052;-84
2023/10/11 01:15:11;;;;;;;16.48;6.10;;;18.40;99.90;;;;;;4995968;28;20338;-84
2023/10/11 01:17:39;;;;;;;22.08;6.60;;;18.40;99.90;;;;;;4993399;28;20026;-88
2023/10/11 01:20:13;;;;;;;18.10;6.53;;;18.30;99.90;;;;;;4996141;28;20037;-86
2023/10/11 01:22:43;;;;;;;20.98;6.57;;;18.40;99.90;;;;;;4998638;28;20555;-87
2023/10/11 01:25:18;;;;;;;21.35;7.22;;;18.40;99.90;;;;;;4997672;28;20082;-87
2023/10/11 01:27:47;;;;;;;18.00;6.53;;;18.40;99.90;;;;;;4999790;28;20431;-90
2023/10/11 01:30:15;;;;;;;16.00;6.68;;;18.40;99.90;;;;;;4994278;28;20554;-90
2023/10/11 01:32:41;;;;;;;15.10;6.38;;;18.50;99.90;;;;;;4994514;28;20061;-82
2023/10/11 01:35:19;;;;;;;23.88;7.68;;;18.40;99.90;;;;;;4998126;28;20570;-91
2023/10/11 01:37:48;;;;;;;14.10;6.43;;;18.40;99.90;;;;;;4989819;28;20034;-90
2023/10/11 01:40:20;;;;;;;22.95;6.90;;;18.40;99.90;;;;;;4994823;28;20108;-91
2023/10/11 01:42:53;;;;;;;22.80;7.45;;;18.40;99.90;;;;;;4989894;28;20030;-88
2023/10/11 01:45:19;;;;;;;13.40;6.15;;;18.40;99.90;;;;;;4988147;28;20017;-85
2023/10/11 01:47:51;;;;;;;25.95;6.80;;;18.40;99.90;;;;;;4996555;28;20071;-87
2023/10/11 01:50:18;;;;;;;15.90;6.38;;;18.50;99.90;;;;;;4997948;28;20486;-85
2023/10/11 01:52:47;;;;;;;16.77;7.28;;;18.40;99.90;;;;;;4986021;28;20144;-86
2023/10/11 01:55:15;;;;;;;13.90;6.60;;;18.50;99.90;;;;;;5000513;28;20023;-89
2023/10/11 01:57:49;;;;;;;16.27;6.53;;;18.40;99.90;;;;;;4995556;28;20028;-83
2023/10/11 02:00:24;;;;;;;17.88;6.35;;;18.40;99.90;;;;;;4987024;28;20038;-85
2023/10/11 02:03:00;;;;;;;20.00;7.13;;;18.40;99.90;;;;;;4991618;28;20581;-88
2023/10/11 02:05:32;;;;;;;20.73;5.80;;;18.40;99.90;;;;;;4994825;28;20054;-84
2023/10/11 02:08:04;;;;;;;17.38;7.15;;;18.40;99.90;;;;;;4986244;28;20030;-85
2023/10/11 02:10:36;;;;;;;17.83;6.90;;;18.40;99.90;;;;;;4992948;28;20033;-83
2023/10/11 02:13:06;;;;;;;23.60;6.15;;;18.40;99.90;;;;;;4996914;28;20098;-89
2023/10/11 02:15:34;;;;;;;20.30;6.10;;;18.30;99.90;;;;;;4997991;28;20046;-85
2023/10/11 02:18:07;;;;;;;21.35;7.30;;;18.30;99.90;;;;;;4993793;28;20433;-86
2023/10/11 02:20:34;;;;;;;15.90;6.85;;;18.30;99.90;;;;;;4993638;28;20266;-85
2023/10/11 02:23:02;;;;;;;19.33;6.25;;;18.40;99.90;;;;;;4992662;28;20033;-85
2023/10/11 02:25:28;;;;;;;21.10;6.40;;;18.30;99.90;;;;;;4992064;28;20276;-87
2023/10/11 02:27:55;;;;;;;22.77;6.70;;;18.30;99.90;;;;;;4991769;28;20041;-86
2023/10/11 02:30:24;;;;;;;19.50;6.47;;;18.40;99.90;;;;;;4995251;28;20034;-88
2023/10/11 02:32:51;;;;;;;20.10;6.63;;;18.40;99.90;;;;;;4995638;28;20380;-90
2023/10/11 02:35:19;;;;;;;19.63;6.60;;;18.40;99.90;;;;;;4999622;28;20403;-85
2023/10/11 02:37:46;;;;;;;18.23;6.10;;;18.40;99.90;;;;;;4994528;28;20116;-83
2023/10/11 02:40:22;;;;;;;16.05;7.22;;;18.40;99.90;;;;;;4999608;28;20121;-84
2023/10/11 02:43:03;;;;;;;16.98;5.97;;;18.50;99.90;;;;;;4990638;28;20051;-87
2023/10/11 02:45:32;;;;;;;19.27;6.28;;;18.40;99.90;;;;;;4993256;28;20037;-86
2023/10/11 02:48:02;;;;;;;16.65;5.32;;;18.50;99.90;;;;;;4993535;28;20037;-88
2023/10/11 02:50:36;;;;;;;22.35;7.40;;;18.50;99.90;;;;;;4994909;28;20041;-88
2023/10/11 02:53:05;;;;;;;16.98;7.15;;;18.50;99.90;;;;;;4993512;28;20072;-85
2023/10/11 02:55:31;;;;;;;15.45;5.80;;;18.50;99.90;;;;;;4988950;28;20035;-90
2023/10/11 02:58:06;;;;;;;11.27;6.07;;;18.50;99.90;;;;;;4992210;28;20111;-88
2023/10/11 03:00:34;;;;;;;14.57;6.80;;;18.40;99.90;;;;;;4995671;28;20102;-86
2023/10/11 03:03:00;;;;;;;27.25;6.80;;;18.40;99.90;;;;;;4995776;28;20026;-87
2023/10/11 03:05:27;;;;;;;30.92;7.45;;;18.30;99.90;;;;;;4993789;28;20474;-86
2023/10/11 03:08:26;;;;;;;16.95;7.07;;;18.20;99.90;;;;;;4994774;28;20028;-86
2023/10/11 03:10:57;;;;;;;18.70;6.50;;;18.20;99.90;;;;;;4992275;28;20042;-84
2023/10/11 03:13:41;;;;;;;13.02;6.18;;;18.10;99.90;;;;;;4994107;28;20415;-84
2023/10/11 03:16:13;;;;;;;23.45;7.45;;;18.00;99.90;;;;;;4993436;28;20050;-88
2023/10/11 03:18:46;;;;;;;15.50;6.38;;;18.00;99.90;;;;;;5002790;28;20051;-86
2023/10/11 03:21:17;;;;;;;18.40;6.45;;;17.90;99.90;;;;;;5000392;28;20490;-88
2023/10/11 03:23:54;;;;;;;25.17;6.75;;;17.90;99.90;;;;;;4994192;28;20689;-93
2023/10/11 03:26:31;;;;;;;15.77;6.68;;;17.90;99.90;;;;;;4993333;28;20044;-96
2023/10/11 03:29:05;;;;;;;15.73;6.40;;;17.90;99.90;;;;;;4993015;28;20049;-90
2023/10/11 03:31:40;;;;;;;14.63;6.07;;;17.90;99.90;;;;;;4995708;28;20103;-86
2023/10/11 03:34:17;;;;;;;15.82;6.82;;;17.90;99.90;;;;;;4988584;28;20084;-86
2023/10/11 03:36:49;;;;;;;19.67;8.40;;;17.90;99.90;;;;;;4989556;28;20034;-86
2023/10/11 03:44:45;;;;;;;22.25;6.53;;;17.90;99.90;;;;;;4990340;28;20409;-90
2023/10/11 03:47:14;;;;;;;17.63;6.80;;;17.90;99.90;;;;;;4994282;28;20022;-89
2023/10/11 03:49:52;;;;;;;21.42;7.13;;;17.80;99.90;;;;;;4998422;28;20075;-84
2023/10/11 03:52:30;;;;;;;19.45;7.00;;;17.80;99.90;;;;;;4986278;28;20052;-87
2023/10/11 03:57:50;;;;;;;16.92;6.47;;;17.90;99.90;;;;;;4997782;28;20538;-85
2023/10/11 04:02:48;;;;;;;11.68;5.90;;;17.80;99.90;;;;;;4996163;28;20447;-87
2023/10/11 04:05:16;;;;;;;16.27;6.63;;;17.80;99.90;;;;;;4995525;28;20060;-86
2023/10/11 04:07:42;;;;;;;21.75;7.10;;;17.80;99.90;;;;;;4992555;28;20038;-87
2023/10/11 04:10:19;;;;;;;20.05;7.95;;;17.80;99.90;;;;;;4987105;28;20053;-89
2023/10/11 04:12:44;;;;;;;17.08;6.18;;;17.80;99.90;;;;;;4995018;28;20050;-84
2023/10/11 04:15:24;;;;;;;18.48;6.13;;;17.80;99.90;;;;;;4998956;28;20509;-86
2023/10/11 04:17:55;;;;;;;16.42;7.28;;;17.80;99.90;;;;;;4997352;28;20060;-84
2023/10/11 04:20:32;;;;;;;16.23;6.10;;;17.80;99.90;;;;;;4993544;28;20034;-87
2023/10/11 04:23:14;;;;;;;20.95;7.53;;;17.90;99.90;;;;;;4993192;28;20513;-85
2023/10/11 04:25:43;;;;;;;15.93;6.15;;;17.90;99.90;;;;;;4991831;28;20038;-85
2023/10/11 04:28:12;;;;;;;13.45;6.03;;;17.90;99.90;;;;;;4993911;28;20045;-88
2023/10/11 04:30:44;;;;;;;14.75;6.90;;;17.90;99.90;;;;;;4999561;28;20333;-85
2023/10/11 04:33:25;;;;;;;15.13;6.30;;;18.00;99.90;;;;;;4995430;28;20317;-86
2023/10/11 04:35:57;;;;;;;21.98;6.80;;;17.90;99.90;;;;;;4991589;28;20034;-88
2023/10/11 04:38:30;;;;;;;15.27;7.25;;;17.90;99.90;;;;;;4996758;28;20488;-87
2023/10/11 04:41:02;;;;;;;14.18;6.55;;;17.90;99.90;;;;;;4996160;28;20022;-88
2023/10/11 04:43:29;;;;;;;18.35;6.60;;;17.90;99.90;;;;;;4997822;28;20029;-86
2023/10/11 04:45:59;;;;;;;18.17;6.18;;;17.90;99.90;;;;;;4998963;28;20094;-83
2023/10/11 04:48:30;;;;;;;17.67;5.75;;;17.90;99.90;;;;;;4998804;28;20109;-87
2023/10/11 04:59:27;;;;;;;15.75;6.60;;;18.00;99.90;;;;;;4995911;28;20041;-85
2023/10/11 05:02:09;;;;;;;15.93;6.90;;;17.90;99.90;;;;;;4991849;28;20065;-89
2023/10/11 05:04:42;;;;;;;20.90;5.70;;;17.90;99.90;;;;;;4998145;28;20435;-85
2023/10/11 05:07:19;;;;;;;15.23;6.80;;;17.90;99.90;;;;;;4999165;28;20040;-88
2023/10/11 05:09:52;;;;;;;20.30;7.43;;;17.80;99.90;;;;;;4995748;28;20064;-85
2023/10/11 05:12:21;;;;;;;24.38;6.55;;;17.80;99.90;;;;;;4993475;28;20083;-83
2023/10/11 05:22:52;;;;;;;16.63;5.90;;;17.70;99.90;;;;;;4973176;28;20042;-87
2023/10/11 05:27:51;;;;;;;19.92;6.68;;;17.60;99.90;;;;;;4997588;28;20505;-87
2023/10/11 05:30:28;;;;;;;18.13;7.25;;;17.50;99.90;;;;;;4989456;28;20493;-85
2023/10/11 05:52:17;;;;;;;15.00;6.28;;;17.40;99.90;;;;;;4992160;28;20125;-85
2023/10/11 05:54:46;;;;;;;15.32;6.30;;;17.40;99.90;;;;;;4993766;28;20437;-85
2023/10/11 05:57:15;;;;;;;16.42;5.60;;;17.40;99.90;;;;;;4994473;28;20037;-86
2023/10/11 05:59:42;;;;;;;22.88;5.97;;;17.40;99.90;;;;;;4990495;28;20349;-85
2023/10/11 06:02:18;;;;;;;21.40;6.70;;;17.40;99.90;;;;;;4993336;28;20022;-86
2023/10/11 06:04:49;;;;;;;16.30;7.28;;;17.50;99.90;;;;;;5001850;28;20382;-86
2023/10/11 06:07:19;;;;;;;14.93;5.90;;;17.50;99.90;;;;;;5002348;28;20038;-85
2023/10/11 06:10:06;;;;;;;14.70;6.43;;;17.50;99.90;;;;;;5002880;28;20038;-85
2023/10/11 06:12:35;;;;;;;15.98;6.03;;;17.50;99.90;;;;;;4994507;28;20586;-84
2023/10/11 06:15:05;;;;;;;19.10;6.32;;;17.40;99.90;;;;;;4995294;28;20050;-86
2023/10/11 06:17:41;;;;;;;12.48;5.47;;;17.40;99.90;;;;;;4990542;28;20030;-85
2023/10/11 06:21:01;;;;;;;16.10;6.45;;;17.40;99.90;;;;;;4996761;28;20026;-85
2023/10/11 06:23:03;;;;;;;17.88;6.13;;;17.40;99.90;;;;;;5003262;28;20048;-84
2023/10/11 06:28:13;;;;;;;12.95;5.85;;;17.40;99.90;;;;;;4996687;28;20045;-85
2023/10/11 06:30:42;;;;;;;15.98;5.57;;;17.40;99.90;;;;;;5001094;28;20026;-86
2023/10/11 06:33:12;;;;;;;9.80;5.03;;;17.30;99.90;;;;;;5001049;28;20034;-86
2023/10/11 06:35:43;;;;;;;18.52;6.32;;;17.30;99.90;;;;;;5003484;28;20030;-85
2023/10/11 06:38:10;;;;;;;21.13;5.63;;;17.30;99.90;;;;;;4997205;28;20030;-85
2023/10/11 06:40:39;;;;;;;19.67;5.90;;;17.40;99.90;;;;;;4995795;28;20034;-84
2023/10/11 06:43:09;;;;;;;20.67;6.15;;;17.40;99.90;;;;;;4998214;28;20033;-84
2023/10/11 06:45:35;;;;;;;20.02;6.22;;;17.50;99.90;;;;;;4994753;28;20424;-87
2023/10/11 06:48:06;;;;;;;12.18;5.85;;;17.50;99.90;;;;;;4996940;28;20026;-86
2023/10/11 06:50:39;;;;;;;17.98;6.15;;;17.50;99.90;;;;;;5000869;28;20037;-85
2023/10/11 06:53:09;;;;;;;14.88;6.20;;;17.60;99.90;;;;;;4991731;28;20046;-90
2023/10/11 06:55:35;;;;;;;13.38;5.60;;;17.60;99.90;;;;;;4994112;28;20026;-86
2023/10/11 06:58:09;;;;;;;23.40;6.43;;;17.60;99.90;;;;;;4996781;28;20099;-86
2023/10/11 07:00:45;;;;;;;14.07;6.43;;;17.70;99.90;;;;;;4998166;28;20110;-85
2023/10/11 07:05:48;;;;;;;12.27;5.53;;;17.70;99.90;;;;;;5001529;28;20071;-82
2023/10/11 07:08:18;;;;;;;20.92;6.15;;;17.70;99.90;;;;;;4998421;28;20026;-86
2023/10/11 07:11:00;;;;;;;14.05;5.35;;;17.80;99.90;;;;;;4996008;28;20033;-86
2023/10/11 07:13:29;;;;;;;23.27;6.38;;;17.90;99.90;;;;;;4995768;28;20064;-87
2023/10/11 07:15:57;;;;;;;17.30;6.88;;;18.00;99.90;;;;;;5002841;28;20049;-86
2023/10/11 07:18:25;;;;;;;15.27;5.63;;;18.10;99.90;;;;;;4999118;28;20026;-86
2023/10/11 07:21:05;;;;;;;18.88;5.22;;;18.20;99.90;;;;;;4994542;28;20106;-86
2023/10/11 07:29:00;;;;;;;15.55;5.18;;;18.40;99.90;;;;;;4993600;28;20393;-83
2023/10/11 07:31:38;;;;;;;18.33;5.85;;;18.40;99.90;;;;;;4997617;28;20382;-84
2023/10/11 07:34:06;;;;;;;16.13;6.32;;;18.40;99.90;;;;;;4996508;28;20051;-84
2023/10/11 07:36:42;;;;;;;18.77;6.28;;;18.40;99.90;;;;;;4999565;28;20118;-84
2023/10/11 07:39:19;;;;;;;;;;;18.50;99.90;;;;;;5001824;28;20033;-85
2023/10/11 07:41:45;;;;;;;16.02;4.90;;;18.50;99.90;;;;;;5002242;28;19966;-84
2023/10/11 07:44:12;;;;;;;13.27;5.47;;;18.40;99.90;;;;;;5003204;28;20482;-82
2023/10/11 07:46:38;;;;;;;12.70;5.00;;;18.40;99.90;;;;;;5002895;28;20062;-88
2023/10/11 07:49:14;;;;;;;22.67;5.35;;;18.50;99.90;;;;;;5003462;28;20029;-84
2023/10/11 07:51:40;;;;;;;14.18;5.05;;;18.50;99.90;;;;;;4995068;28;20034;-84
2023/10/11 07:54:07;;;;;;;15.68;5.97;;;18.50;99.90;;;;;;4992527;28;20499;-85
2023/10/11 07:56:37;;;;;;;17.10;6.20;;;18.50;99.90;;;;;;4999345;28;20058;-82
2023/10/11 07:59:10;;;;;;;19.50;6.03;;;18.50;99.90;;;;;;4993286;28;20117;-82
2023/10/11 08:01:42;;;;;;;13.98;5.07;;;18.50;99.90;;;;;;4997413;28;20029;-83
2023/10/11 08:04:12;;;;;;;12.88;4.88;;;18.50;99.90;;;;;;4990670;28;20029;-82
2023/10/11 08:09:34;;;;;;;28.83;6.25;;;18.60;99.90;;;;;;4982350;28;20043;-84
2023/10/11 08:12:14;;;;;;;14.48;4.93;;;18.70;99.90;;;;;;4996800;28;20037;-80
2023/10/11 08:14:44;;;;;;;14.70;5.28;;;18.80;99.90;;;;;;5000476;28;20029;-82
2023/10/11 08:17:12;;;;;;;17.38;4.30;;;18.80;99.90;;;;;;4995496;28;20401;-82
2023/10/11 08:19:37;;;;;;;16.85;5.00;;;18.90;99.90;;;;;;4992808;28;20030;-85
2023/10/11 08:22:09;;;;;;;12.43;4.90;;;19.00;99.90;;;;;;5001007;28;20030;-84
2023/10/11 08:24:46;;;;;;;14.40;5.60;;;19.00;99.90;;;;;;4999082;28;20029;-84
2023/10/11 08:27:12;;;;;;;15.27;4.22;;;19.10;99.90;;;;;;5000533;28;20044;-89
2023/10/11 08:29:42;;;;;;;24.27;6.10;;;19.20;99.90;;;;;;4996293;28;20030;-87
2023/10/11 08:32:13;;;;;;;20.13;5.22;;;19.20;99.90;;;;;;4998357;28;20041;-83
2023/10/11 08:34:46;;;;;;;17.08;5.70;;;19.30;99.90;;;;;;4999636;28;20030;-87
2023/10/11 08:37:12;;;;;;;10.55;4.55;;;19.30;99.90;;;;;;4993361;28;20548;-85
2023/10/11 08:39:54;;;;;;;8.55;4.28;;;19.30;99.90;;;;;;4994180;28;20034;-87
2023/10/11 08:42:22;;;;;;;16.00;5.22;;;19.30;99.90;;;;;;5000621;28;20117;-88
2023/10/11 08:44:49;;;;;;;12.20;5.00;;;19.30;99.90;;;;;;4995936;28;20471;-86
2023/10/11 08:47:19;;;;;;;19.88;5.60;;;19.30;99.90;;;;;;4993470;28;20137;-87
2023/10/11 08:49:48;;;;;;;19.30;5.18;;;19.30;99.90;;;;;;4993385;28;20069;-81
2023/10/11 08:52:25;;;;;;;18.83;5.95;;;19.40;99.90;;;;;;4987509;28;20381;-85
2023/10/11 08:54:51;;;;;;;14.48;4.78;;;19.40;99.90;;;;;;4997338;28;20049;-86
2023/10/11 08:57:25;;;;;;;16.52;4.65;;;19.40;99.90;;;;;;4995563;28;20075;-83
2023/10/11 08:59:58;;;;;;;16.88;5.68;;;19.40;99.90;;;;;;4986782;28;20038;-89
2023/10/11 09:02:28;;;;;;;15.13;5.53;;;19.50;99.90;;;;;;5001142;28;20022;-81
2023/10/11 09:05:07;;;;;;;29.35;4.93;;;19.60;99.90;;;;;;4993271;28;20071;-82
2023/10/11 09:07:44;;;;;;;22.77;5.50;;;19.60;99.90;;;;;;4997363;28;20087;-83
2023/10/11 09:10:30;;;;;;;12.43;4.47;;;19.60;99.90;;;;;;4988675;28;20119;-88
2023/10/11 09:12:57;;;;;;;16.90;4.57;;;19.60;99.90;;;;;;4998936;28;20037;-81
2023/10/11 09:15:40;;;;;;;13.75;5.05;;;19.50;99.90;;;;;;4990319;28;20125;-87
2023/10/11 09:18:25;;;;;;;18.85;5.15;;;19.60;99.90;;;;;;4994682;28;20041;-83
2023/10/11 09:21:08;;;;;;;22.63;4.90;;;19.60;99.90;;;;;;4991152;28;20033;-85
2023/10/11 09:23:46;;;;;;;15.63;4.53;;;19.60;99.90;;;;;;4994961;28;20041;-94
2023/10/11 09:26:20;;;;;;;17.50;5.22;;;19.60;99.90;;;;;;4995461;28;20030;-88
2023/10/11 09:28:56;;;;;;;19.70;5.00;;;19.60;99.90;;;;;;4996538;28;20125;-85
2023/10/11 09:31:23;;;;;;;13.02;4.75;;;19.60;99.90;;;;;;4996314;28;20118;-81
2023/10/11 09:33:53;;;;;;;18.95;4.82;;;19.60;99.90;;;;;;4997832;28;20050;-84
2023/10/11 09:36:20;;;;;;;13.95;4.95;;;19.70;99.90;;;;;;4991287;28;20100;-83
2023/10/11 09:38:54;;;;;;;18.30;5.13;;;19.80;99.90;;;;;;4987846;28;20478;-84
2023/10/11 09:41:25;;;;;;;16.88;4.72;;;19.90;99.90;;;;;;4997417;28;20053;-90
2023/10/11 09:43:59;;;;;;;15.68;5.75;;;20.00;99.90;;;;;;4996108;28;20033;-88
2023/10/11 09:46:29;;;;;;;11.25;4.68;;;20.00;99.90;;;;;;5000538;28;20222;-84
2023/10/11 09:48:56;;;;;;;12.32;4.75;;;20.10;99.90;;;;;;4995622;28;20041;-92
2023/10/11 09:51:24;;;;;;;12.93;4.65;;;20.20;99.90;;;;;;4997730;28;20030;-87
2023/10/11 09:53:50;;;;;;;14.93;5.25;;;20.30;99.90;;;;;;5002348;28;20053;-84
2023/10/11 09:56:25;;;;;;;13.40;4.95;;;20.30;99.90;;;;;;5000194;28;20026;-89
2023/10/11 09:58:56;;;;;;;13.57;4.53;;;20.30;99.90;;;;;;4996347;28;20051;-88
2023/10/11 10:01:41;;;;;;;13.50;4.78;;;20.40;99.90;;;;;;4999147;28;20113;-82
2023/10/11 10:04:09;;;;;;;25.47;5.07;;;20.50;99.90;;;;;;4992197;28;20140;-82
2023/10/11 10:06:35;;;;;;;21.90;5.43;;;20.60;99.90;;;;;;4999708;28;20026;-84
2023/10/11 10:09:16;;;;;;;20.10;4.93;;;20.70;99.90;;;;;;4997996;28;20041;-90
2023/10/11 10:12:05;;;;;;;14.88;5.30;;;20.80;99.90;;;;;;4998100;28;20040;-87
2023/10/11 10:14:38;;;;;;;16.52;5.20;;;20.80;99.90;;;;;;5002002;28;20493;-84
2023/10/11 10:17:18;;;;;;;15.07;4.45;;;20.90;99.90;;;;;;5001932;28;20034;-90
2023/10/11 10:19:47;;;;;;;11.65;4.28;;;20.80;99.90;;;;;;4995503;28;20022;-83
2023/10/11 10:22:27;;;;;;;16.50;4.65;;;20.90;99.90;;;;;;4999195;28;20022;-79
2023/10/11 10:24:54;;;;;;;21.25;4.70;;;20.90;99.90;;;;;;4998576;28;20036;-84
2023/10/11 10:27:33;;;;;;;15.20;4.50;;;21.00;99.90;;;;;;5000775;28;20041;-86
2023/10/11 10:30:00;;;;;;;20.35;5.47;;;21.00;99.90;;;;;;5001239;28;20056;-84
2023/10/11 10:32:26;;;;;;;15.93;4.90;;;21.00;99.90;;;;;;4992436;28;20270;-83
2023/10/11 10:35:19;;;;;;;22.40;5.60;;;21.00;99.90;;;;;;4994305;28;20068;-82
2023/10/11 10:37:55;;;;;;;16.77;4.30;;;21.00;99.90;;;;;;5002990;28;20030;-85
2023/10/11 10:40:25;;;;;;;18.50;4.75;;;21.10;99.90;;;;;;4994243;28;20029;-81
2023/10/11 10:43:06;;;;;;;13.20;4.75;;;21.20;99.90;;;;;;5009642;28;20053;-89
2023/10/11 10:45:33;;;;;;;23.80;5.07;;;21.20;99.90;;;;;;5002655;28;20050;-84
2023/10/11 10:48:23;;;;;;;22.42;4.70;;;21.30;99.90;;;;;;4992560;28;20026;-85
2023/10/11 10:51:01;;;;;;;16.88;4.85;;;21.30;99.90;;;;;;4995222;28;20234;-79
2023/10/11 10:53:39;;;;;;;14.63;4.88;;;21.30;99.90;;;;;;5014348;28;20028;-85
2023/10/11 10:56:05;;;;;;;16.45;5.13;;;21.20;99.90;;;;;;4995060;28;20069;-82
2023/10/11 10:58:31;;;;;;;18.35;4.63;;;21.10;99.90;;;;;;4990529;28;20535;-86
2023/10/11 11:00:59;;;;;;;14.77;4.15;;;21.10;99.90;;;;;;4989809;28;20106;-80
2023/10/11 11:03:31;;;;;;;15.77;4.53;;;21.00;99.90;;;;;;4996070;28;20026;-85
2023/10/11 11:06:02;;;;;;;14.77;4.65;;;21.00;99.90;;;;;;4993613;28;20399;-83
2023/10/11 11:08:31;;;;;;;17.42;5.40;;;21.00;99.90;;;;;;4992774;28;20142;-88
2023/10/11 11:11:19;;;;;;;16.48;4.28;;;20.90;99.90;;;;;;4994494;28;20031;-86
2023/10/11 11:13:49;;;;;;;19.63;4.63;;;20.90;99.90;;;;;;4998980;28;20138;-86
2023/10/11 11:16:22;;;;;;;12.60;4.00;;;21.00;99.90;;;;;;5000542;28;20135;-82
2023/10/11 11:18:47;;;;;;;18.42;4.38;;;21.10;99.90;;;;;;5001555;28;20082;-81
2023/10/11 11:21:22;;;;;;;13.95;3.95;;;21.10;99.90;;;;;;4992236;28;20030;-80
2023/10/11 11:23:51;;;;;;;14.02;5.88;;;21.20;99.90;;;;;;4989963;28;20031;-86
2023/10/11 11:26:21;;;;;;;14.02;5.43;;;21.30;99.90;;;;;;4999123;28;20112;-87
2023/10/11 11:28:47;;;;;;;12.80;4.97;;;21.30;99.90;;;;;;5000710;28;20371;-90
2023/10/11 11:31:15;;;;;;;13.65;4.63;;;21.40;99.90;;;;;;4994180;28;20033;-84
2023/10/11 11:34:05;;;;;;;11.85;4.15;;;21.40;99.90;;;;;;4993852;28;20042;-89
2023/10/11 11:36:31;;;;;;;9.50;4.35;;;21.60;99.90;;;;;;4990548;28;20087;-84
2023/10/11 11:41:47;;;;;;;14.65;4.82;;;21.80;99.90;;;;;;4991216;28;20453;-83
2023/10/11 11:44:20;;;;;;;14.02;4.30;;;22.00;99.90;;;;;;4996267;28;20031;-81
2023/10/11 11:46:48;;;;;;;16.85;4.65;;;22.20;99.90;;;;;;4996214;28;20037;-86
2023/10/11 11:49:15;;;;;;;22.45;5.43;;;22.30;99.90;;;;;;4999646;28;20498;-87
2023/10/11 11:51:41;;;;;;;17.85;4.82;;;22.30;99.90;;;;;;4994093;28;20121;-82
2023/10/11 11:54:09;;;;;;;12.02;4.65;;;22.30;99.90;;;;;;4999346;28;20124;-86
2023/10/11 11:56:35;;;;;;;22.13;4.97;;;22.30;99.90;;;;;;5001330;28;20022;-84
2023/10/11 11:59:00;;;;;;;12.25;4.32;;;22.30;99.90;;;;;;4993363;28;20113;-81
2023/10/11 12:01:26;;;;;;;15.75;4.53;;;22.20;99.90;;;;;;4995414;28;20018;-82
2023/10/11 12:03:54;;;;;;;10.10;4.03;;;22.20;99.90;;;;;;4995134;28;20034;-82
2023/10/11 12:06:23;;;;;;;20.65;4.47;;;22.20;99.90;;;;;;4998230;28;20481;-85
2023/10/11 12:09:02;;;;;;;27.90;5.38;;;22.20;99.90;;;;;;5002946;28;20030;-83
2023/10/11 12:11:29;;;;;;;17.05;4.53;;;22.20;99.90;;;;;;4995165;28;20030;-87
2023/10/11 12:14:00;;;;;;;16.90;4.90;;;22.20;99.90;;;;;;4985323;28;20065;-84
2023/10/11 12:16:26;;;;;;;12.48;4.97;;;22.30;99.90;;;;;;4991370;28;20046;-82
2023/10/11 12:18:59;;;;;;;10.20;4.22;;;22.30;99.90;;;;;;4996989;28;20845;-90
2023/10/11 12:21:25;;;;;;;18.45;4.65;;;22.40;99.90;;;;;;5001121;28;20044;-84
2023/10/11 12:23:51;;;;;;;15.40;4.30;;;22.50;99.90;;;;;;4997127;28;20026;-89
2023/10/11 12:26:17;;;;;;;15.25;5.20;;;22.60;99.90;;;;;;4995632;28;20390;-86
2023/10/11 12:28:44;;;;;;;15.75;4.80;;;22.60;99.90;;;;;;5001036;28;20031;-86
2023/10/11 12:31:10;;;;;;;22.02;6.30;;;22.60;99.90;;;;;;4996099;28;20036;-82
2023/10/11 12:33:36;;;;;;;14.40;5.07;;;22.60;99.90;;;;;;5000481;28;20045;-83
2023/10/11 12:36:05;;;;;;;13.25;5.03;;;22.60;99.90;;;;;;5004101;28;20105;-88
2023/10/11 12:38:36;;;;;;;13.65;4.90;;;22.60;99.40;;;;;;5000919;28;20030;-86
2023/10/11 12:41:03;;;;;;;18.95;4.55;;;22.60;99.90;;;;;;5004857;28;20026;-87
2023/10/11 12:43:29;;;;;;;15.45;4.78;;;22.50;99.90;;;;;;4988922;28;20080;-91
2023/10/11 12:45:55;;;;;;;15.63;5.07;;;22.50;99.90;;;;;;4995021;28;20030;-86
2023/10/11 12:48:20;;;;;;;20.70;5.15;;;22.50;99.90;;;;;;4998344;28;20033;-87
2023/10/11 12:50:58;;;;;;;16.95;5.00;;;22.50;99.90;;;;;;4993861;28;20061;-93
2023/10/11 12:53:28;;;;;;;20.50;4.30;;;22.40;99.90;;;;;;4988518;28;20038;-86
2023/10/11 12:55:54;;;;;;;33.50;5.70;;;22.40;99.90;;;;;;4991621;28;20115;-88
2023/10/11 12:58:27;;;;;;;17.63;5.28;;;22.40;99.90;;;;;;4996007;28;20473;-86
2023/10/11 13:01:05;;;;;;;20.02;5.18;;;22.50;99.90;;;;;;4999369;28;20026;-82
2023/10/11 13:03:37;;;;;;;18.88;5.80;;;22.50;99.90;;;;;;4995568;28;20022;-87
2023/10/11 13:06:03;;;;;;;19.33;4.70;;;22.60;99.90;;;;;;4997952;28;20030;-81
2023/10/11 13:08:30;;;;;;;12.70;5.10;;;22.60;99.90;;;;;;4998331;28;20379;-86
2023/10/11 13:10:56;;;;;;;15.15;4.97;;;22.60;99.90;;;;;;4993839;28;20033;-87
2023/10/11 13:13:23;;;;;;;22.23;6.05;;;22.60;99.90;;;;;;4997469;28;20129;-90
2023/10/11 13:16:00;;;;;;;14.27;5.22;;;22.60;99.90;;;;;;4994778;28;20050;-87
2023/10/11 13:18:32;;;;;;;21.15;5.63;;;22.60;99.90;;;;;;4992423;28;20534;-86
2023/10/11 13:21:04;;;;;;;15.10;5.32;;;22.60;99.90;;;;;;4997113;28;20040;-86
2023/10/11 13:23:30;;;;;;;15.95;5.90;;;22.60;99.90;;;;;;4997232;28;20033;-85
2023/10/11 13:26:00;;;;;;;23.67;5.47;;;22.60;99.90;;;;;;4990674;28;20025;-87
2023/10/11 13:28:29;;;;;;;20.48;4.88;;;22.60;99.90;;;;;;4997865;28;20034;-84
2023/10/11 13:30:55;;;;;;;16.42;5.90;;;22.70;99.90;;;;;;4995023;28;20114;-87
2023/10/11 13:33:21;;;;;;;15.05;4.50;;;22.70;99.90;;;;;;5002720;28;20045;-83
2023/10/11 13:35:48;;;;;;;25.85;5.88;;;22.70;99.90;;;;;;4999114;28;20022;-83
2023/10/11 13:38:20;;;;;;;19.45;5.28;;;22.80;99.90;;;;;;4997978;28;20474;-84
2023/10/11 13:40:46;;;;;;;19.70;5.13;;;22.80;99.90;;;;;;4997371;28;20026;-88
2023/10/11 13:43:16;;;;;;;17.25;5.20;;;22.80;99.90;;;;;;4996299;28;20113;-85
2023/10/11 13:45:46;;;;;;;14.05;5.68;;;22.80;99.90;;;;;;4992285;28;20049;-83
2023/10/11 13:48:12;;;;;;;21.30;4.85;;;22.80;99.90;;;;;;4988672;28;20717;-86
2023/10/11 13:50:39;;;;;;;22.88;5.13;;;22.80;99.90;;;;;;4991253;28;20335;-89
2023/10/11 13:53:06;;;;;;;15.00;4.82;;;22.70;99.90;;;;;;4989042;28;20143;-86
2023/10/11 13:55:40;;;;;;;16.70;4.50;;;22.80;99.90;;;;;;4992206;28;20034;-86
2023/10/11 13:58:06;;;;;;;19.98;5.95;;;22.80;99.90;;;;;;5001310;28;20749;-83
2023/10/11 14:05:59;;;;;;;16.02;4.93;;;23.00;99.90;;;;;;4996891;28;20121;-82
2023/10/11 14:08:25;;;;;;;16.27;4.95;;;22.90;99.90;;;;;;4993432;28;20235;-90
2023/10/11 14:10:54;;;;;;;21.23;5.05;;;22.90;99.90;;;;;;4996860;28;20117;-88
2023/10/11 14:13:27;;;;;;;22.00;6.43;;;22.80;99.90;;;;;;4992015;28;20042;-85